sensor_id;sensor_type;location;lat;lon;timestamp;pressure;altitude;pressure_sealevel;temperature;humidity
60055;BME280;45930;53.514;55.904;2023-05-31T00:00:47;49234.97;;;-149.77;38.81
60055;BME280;45930;53.514;55.904;2023-05-31T00:01:48;49256.75;;;-149.77;38.52
60055;BME280;45930;53.514;55.904;2023-05-31T00:02:49;49244.88;;;-149.77;38.57
60055;BME280;45930;53.514;55.904;2023-05-31T00:03:50;49227.03;;;-149.77;38.87
60055;BME280;45930;53.514;55.904;2023-05-31T00:04:50;49254.78;;;-149.77;38.85
60055;BME280;45930;53.514;55.904;2023-05-31T00:05:52;49274.59;;;-149.77;38.62
60055;BME280;45930;53.514;55.904;2023-05-31T00:06:53;49234.97;;;-149.77;38.52
60055;BME280;45930;53.514;55.904;2023-05-31T00:07:54;49215.16;;;-149.77;38.34
60055;BME280;45930;53.514;55.904;2023-05-31T00:08:54;49254.78;;;-149.77;38.23
60055;BME280;45930;53.514;55.904;2023-05-31T00:09:55;49250.81;;;-149.77;38.44
60055;BME280;45930;53.514;55.904;2023-05-31T00:10:56;49256.75;;;-149.77;38.42
60055;BME280;45930;53.514;55.904;2023-05-31T00:11:57;49229.03;;;-149.77;38.58
60055;BME280;45930;53.514;55.904;2023-05-31T00:12:58;49266.66;;;-149.77;38.59
60055;BME280;45930;53.514;55.904;2023-05-31T00:13:59;49262.69;;;-149.77;38.27
60055;BME280;45930;53.514;55.904;2023-05-31T00:15:00;49270.63;;;-149.77;38.30
60055;BME280;45930;53.514;55.904;2023-05-31T00:16:01;49264.69;;;-149.77;38.19
60055;BME280;45930;53.514;55.904;2023-05-31T00:17:02;49266.66;;;-149.77;38.14
60055;BME280;45930;53.514;55.904;2023-05-31T00:18:03;49268.63;;;-149.77;38.17
60055;BME280;45930;53.514;55.904;2023-05-31T00:19:03;49256.75;;;-149.77;38.22
60055;BME280;45930;53.514;55.904;2023-05-31T00:20:05;49252.78;;;-149.77;37.91
60055;BME280;45930;53.514;55.904;2023-05-31T00:21:06;49266.66;;;-149.77;37.94
60055;BME280;45930;53.514;55.904;2023-05-31T00:22:06;49276.56;;;-149.77;37.81
60055;BME280;45930;53.514;55.904;2023-05-31T00:23:07;49252.78;;;-149.77;37.76
60055;BME280;45930;53.514;55.904;2023-05-31T00:24:08;49254.78;;;-149.77;37.89
60055;BME280;45930;53.514;55.904;2023-05-31T00:25:09;49260.72;;;-149.77;38.08
60055;BME280;45930;53.514;55.904;2023-05-31T00:26:09;49278.53;;;-149.77;38.29
60055;BME280;45930;53.514;55.904;2023-05-31T00:27:11;49258.75;;;-149.77;38.42
60055;BME280;45930;53.514;55.904;2023-05-31T00:28:12;49254.78;;;-149.77;38.71
60055;BME280;45930;53.514;55.904;2023-05-31T00:29:12;49258.75;;;-149.77;38.27
60055;BME280;45930;53.514;55.904;2023-05-31T00:30:13;49242.91;;;-149.77;38.70
60055;BME280;45930;53.514;55.904;2023-05-31T00:31:14;49234.97;;;-149.77;38.41
60055;BME280;45930;53.514;55.904;2023-05-31T00:32:15;49272.59;;;-149.77;38.99
60055;BME280;45930;53.514;55.904;2023-05-31T00:33:16;49286.47;;;-149.77;39.13
60055;BME280;45930;53.514;55.904;2023-05-31T00:34:17;49268.63;;;-149.77;39.25
60055;BME280;45930;53.514;55.904;2023-05-31T00:35:18;49270.63;;;-149.77;38.89
60055;BME280;45930;53.514;55.904;2023-05-31T00:36:18;49264.69;;;-149.77;38.87
60055;BME280;45930;53.514;55.904;2023-05-31T00:37:20;49248.84;;;-149.77;38.78
60055;BME280;45930;53.514;55.904;2023-05-31T00:38:20;49242.91;;;-149.77;39.25
60055;BME280;45930;53.514;55.904;2023-05-31T00:39:21;49242.91;;;-149.77;39.00
60055;BME280;45930;53.514;55.904;2023-05-31T00:40:22;49250.81;;;-149.77;38.69
60055;BME280;45930;53.514;55.904;2023-05-31T00:41:23;49258.75;;;-149.77;38.59
60055;BME280;45930;53.514;55.904;2023-05-31T00:42:24;49227.03;;;-149.77;38.67
60055;BME280;45930;53.514;55.904;2023-05-31T00:43:26;49258.75;;;-149.77;39.00
60055;BME280;45930;53.514;55.904;2023-05-31T00:44:27;49258.75;;;-149.77;39.58
60055;BME280;45930;53.514;55.904;2023-05-31T00:45:28;49256.75;;;-149.77;39.88
60055;BME280;45930;53.514;55.904;2023-05-31T00:46:36;49282.50;;;-149.77;40.11
60055;BME280;45930;53.514;55.904;2023-05-31T00:47:37;49246.84;;;-149.77;40.26
60055;BME280;45930;53.514;55.904;2023-05-31T00:48:38;49244.88;;;-149.77;40.51
60055;BME280;45930;53.514;55.904;2023-05-31T00:49:41;49240.91;;;-149.77;40.47
60055;BME280;45930;53.514;55.904;2023-05-31T00:50:42;49246.84;;;-149.77;40.56
60055;BME280;45930;53.514;55.904;2023-05-31T00:51:43;49231.00;;;-149.77;40.67
60055;BME280;45930;53.514;55.904;2023-05-31T00:52:49;49240.91;;;-149.77;40.69
60055;BME280;45930;53.514;55.904;2023-05-31T00:53:52;49242.91;;;-149.77;40.90
60055;BME280;45930;53.514;55.904;2023-05-31T00:54:53;49229.03;;;-149.77;40.81
60055;BME280;45930;53.514;55.904;2023-05-31T00:55:54;49231.00;;;-149.77;40.54
60055;BME280;45930;53.514;55.904;2023-05-31T00:56:54;49248.84;;;-149.77;40.54
60055;BME280;45930;53.514;55.904;2023-05-31T00:57:57;49229.03;;;-149.77;40.40
60055;BME280;45930;53.514;55.904;2023-05-31T00:58:59;49233.00;;;-149.77;40.16
60055;BME280;45930;53.514;55.904;2023-05-31T01:00:00;49272.59;;;-149.77;39.82
60055;BME280;45930;53.514;55.904;2023-05-31T01:01:01;49248.84;;;-149.77;39.60
60055;BME280;45930;53.514;55.904;2023-05-31T01:02:03;49266.66;;;-149.77;39.08
60055;BME280;45930;53.514;55.904;2023-05-31T01:03:04;49252.78;;;-149.77;38.81
60055;BME280;45930;53.514;55.904;2023-05-31T01:04:05;49278.53;;;-149.77;38.86
60055;BME280;45930;53.514;55.904;2023-05-31T01:05:08;49264.69;;;-149.77;38.39
60055;BME280;45930;53.514;55.904;2023-05-31T01:06:10;49221.09;;;-149.77;38.29
60055;BME280;45930;53.514;55.904;2023-05-31T01:07:10;49256.75;;;-149.77;37.86
60055;BME280;45930;53.514;55.904;2023-05-31T01:08:12;49266.66;;;-149.77;37.89
60055;BME280;45930;53.514;55.904;2023-05-31T01:09:15;49266.66;;;-149.77;38.00
60055;BME280;45930;53.514;55.904;2023-05-31T01:10:16;49262.69;;;-149.77;37.72
60055;BME280;45930;53.514;55.904;2023-05-31T01:12:47;49286.47;;;-149.77;38.09
60055;BME280;45930;53.514;55.904;2023-05-31T01:14:13;49294.41;;;-149.77;37.95
60055;BME280;45930;53.514;55.904;2023-05-31T01:15:27;49290.44;;;-149.77;37.74
60055;BME280;45930;53.514;55.904;2023-05-31T01:16:48;49290.44;;;-149.77;37.18
60055;BME280;45930;53.514;55.904;2023-05-31T01:19:39;49282.50;;;-149.77;37.24
60055;BME280;45930;53.514;55.904;2023-05-31T01:20:43;49268.63;;;-149.77;37.16
60055;BME280;45930;53.514;55.904;2023-05-31T01:24:55;49294.41;;;-149.77;37.01
60055;BME280;45930;53.514;55.904;2023-05-31T01:27:21;49300.34;;;-149.77;36.71
60055;BME280;45930;53.514;55.904;2023-05-31T01:28:25;49294.41;;;-149.77;36.70
60055;BME280;45930;53.514;55.904;2023-05-31T01:29:26;49306.28;;;-149.77;36.55
60055;BME280;45930;53.514;55.904;2023-05-31T01:30:29;49276.56;;;-149.77;36.58
60055;BME280;45930;53.514;55.904;2023-05-31T01:31:31;49288.44;;;-149.77;36.58
60055;BME280;45930;53.514;55.904;2023-05-31T01:32:35;49330.03;;;-149.77;36.46
60055;BME280;45930;53.514;55.904;2023-05-31T01:33:37;49282.50;;;-149.77;36.87
60055;BME280;45930;53.514;55.904;2023-05-31T01:34:38;49286.47;;;-149.77;36.63
60055;BME280;45930;53.514;55.904;2023-05-31T01:35:38;49314.19;;;-149.77;36.85
60055;BME280;45930;53.514;55.904;2023-05-31T01:36:39;49298.34;;;-149.77;36.62
60055;BME280;45930;53.514;55.904;2023-05-31T01:37:40;49288.44;;;-149.77;36.71
60055;BME280;45930;53.514;55.904;2023-05-31T01:38:41;49286.47;;;-149.77;36.67
60055;BME280;45930;53.514;55.904;2023-05-31T01:39:42;49316.19;;;-149.77;37.03
60055;BME280;45930;53.514;55.904;2023-05-31T01:40:43;49318.16;;;-149.77;36.81
60055;BME280;45930;53.514;55.904;2023-05-31T01:41:45;49328.06;;;-149.77;37.05
60055;BME280;45930;53.514;55.904;2023-05-31T01:42:48;49334.00;;;-149.77;36.73
60055;BME280;45930;53.514;55.904;2023-05-31T01:43:50;49324.09;;;-149.77;36.86
60055;BME280;45930;53.514;55.904;2023-05-31T01:44:52;49322.13;;;-149.77;36.45
60055;BME280;45930;53.514;55.904;2023-05-31T01:45:54;49341.94;;;-149.77;36.54
60055;BME280;45930;53.514;55.904;2023-05-31T01:46:57;49314.19;;;-149.77;36.30
60055;BME280;45930;53.514;55.904;2023-05-31T01:48:04;49337.97;;;-149.77;36.61
60055;BME280;45930;53.514;55.904;2023-05-31T01:49:06;49298.34;;;-149.77;36.45
60055;BME280;45930;53.514;55.904;2023-05-31T01:50:11;49318.16;;;-149.77;36.26
60055;BME280;45930;53.514;55.904;2023-05-31T01:51:14;49330.03;;;-149.77;36.07
60055;BME280;45930;53.514;55.904;2023-05-31T01:52:17;49353.81;;;-149.77;35.95
60055;BME280;45930;53.514;55.904;2023-05-31T01:53:18;49334.00;;;-149.77;36.21
60055;BME280;45930;53.514;55.904;2023-05-31T01:54:19;49314.19;;;-149.77;36.31
60055;BME280;45930;53.514;55.904;2023-05-31T01:55:20;49334.00;;;-149.77;35.89
60055;BME280;45930;53.514;55.904;2023-05-31T01:56:22;49316.19;;;-149.77;36.07
60055;BME280;45930;53.514;55.904;2023-05-31T01:57:25;49312.22;;;-149.77;36.17
60055;BME280;45930;53.514;55.904;2023-05-31T01:58:32;49330.03;;;-149.77;36.26
60055;BME280;45930;53.514;55.904;2023-05-31T01:59:35;49347.88;;;-149.77;36.21
60055;BME280;45930;53.514;55.904;2023-05-31T02:00:37;49324.09;;;-149.77;36.25
60055;BME280;45930;53.514;55.904;2023-05-31T02:01:39;49324.09;;;-149.77;36.43
60055;BME280;45930;53.514;55.904;2023-05-31T02:02:44;49262.69;;;-149.77;36.58
60055;BME280;45930;53.514;55.904;2023-05-31T02:03:49;49328.06;;;-149.77;37.21
60055;BME280;45930;53.514;55.904;2023-05-31T02:04:49;49302.31;;;-149.77;38.01
60055;BME280;45930;53.514;55.904;2023-05-31T02:05:58;49294.41;;;-149.77;38.30
60055;BME280;45930;53.514;55.904;2023-05-31T02:06:59;49286.47;;;-149.77;38.77
60055;BME280;45930;53.514;55.904;2023-05-31T02:08:00;49294.41;;;-149.77;39.26
60055;BME280;45930;53.514;55.904;2023-05-31T02:09:01;49274.59;;;-149.77;39.68
60055;BME280;45930;53.514;55.904;2023-05-31T02:10:03;49270.63;;;-149.77;39.90
60055;BME280;45930;53.514;55.904;2023-05-31T02:11:04;49262.69;;;-149.77;39.93
60055;BME280;45930;53.514;55.904;2023-05-31T02:12:05;49254.78;;;-149.77;40.14
60055;BME280;45930;53.514;55.904;2023-05-31T02:13:06;49272.59;;;-149.77;41.06
60055;BME280;45930;53.514;55.904;2023-05-31T02:14:07;49278.53;;;-149.77;41.42
60055;BME280;45930;53.514;55.904;2023-05-31T02:15:08;49266.66;;;-149.77;41.69
60055;BME280;45930;53.514;55.904;2023-05-31T02:16:11;49250.81;;;-149.77;41.37
60055;BME280;45930;53.514;55.904;2023-05-31T02:17:12;49292.41;;;-149.77;40.84
60055;BME280;45930;53.514;55.904;2023-05-31T02:18:14;49272.59;;;-149.77;40.48
60055;BME280;45930;53.514;55.904;2023-05-31T02:19:17;49262.69;;;-149.77;39.77
60055;BME280;45930;53.514;55.904;2023-05-31T02:20:19;49294.41;;;-149.77;39.51
60055;BME280;45930;53.514;55.904;2023-05-31T02:21:20;49302.31;;;-149.77;39.48
60055;BME280;45930;53.514;55.904;2023-05-31T02:22:21;49270.63;;;-149.77;39.65
60055;BME280;45930;53.514;55.904;2023-05-31T02:23:22;49286.47;;;-149.77;40.03
60055;BME280;45930;53.514;55.904;2023-05-31T02:24:23;49278.53;;;-149.77;40.41
60055;BME280;45930;53.514;55.904;2023-05-31T02:25:24;49290.44;;;-149.77;41.86
60055;BME280;45930;53.514;55.904;2023-05-31T02:26:25;49280.53;;;-149.77;41.97
60055;BME280;45930;53.514;55.904;2023-05-31T02:27:28;49282.50;;;-149.77;42.01
60055;BME280;45930;53.514;55.904;2023-05-31T02:28:30;49246.84;;;-149.77;41.82
60055;BME280;45930;53.514;55.904;2023-05-31T02:29:31;49270.63;;;-149.77;41.32
60055;BME280;45930;53.514;55.904;2023-05-31T02:30:32;49270.63;;;-149.77;41.28
60055;BME280;45930;53.514;55.904;2023-05-31T02:31:33;49266.66;;;-149.77;41.23
60055;BME280;45930;53.514;55.904;2023-05-31T02:32:34;49278.53;;;-149.77;40.96
60055;BME280;45930;53.514;55.904;2023-05-31T02:33:37;49316.19;;;-149.77;40.89
60055;BME280;45930;53.514;55.904;2023-05-31T02:34:40;49292.41;;;-149.77;40.64
60055;BME280;45930;53.514;55.904;2023-05-31T02:35:42;49268.63;;;-149.77;40.04
60055;BME280;45930;53.514;55.904;2023-05-31T02:36:43;49314.19;;;-149.77;38.82
60055;BME280;45930;53.514;55.904;2023-05-31T02:37:45;49316.19;;;-149.77;38.24
60055;BME280;45930;53.514;55.904;2023-05-31T02:38:47;49320.16;;;-149.77;38.31
60055;BME280;45930;53.514;55.904;2023-05-31T02:39:48;49300.34;;;-149.77;37.82
60055;BME280;45930;53.514;55.904;2023-05-31T02:40:49;49337.97;;;-149.77;38.29
60055;BME280;45930;53.514;55.904;2023-05-31T02:41:50;49300.34;;;-149.77;38.81
60055;BME280;45930;53.514;55.904;2023-05-31T02:42:50;49336.00;;;-149.77;39.24
60055;BME280;45930;53.514;55.904;2023-05-31T02:43:51;49312.22;;;-149.77;39.50
60055;BME280;45930;53.514;55.904;2023-05-31T02:44:52;49318.16;;;-149.77;39.52
60055;BME280;45930;53.514;55.904;2023-05-31T02:45:53;49318.16;;;-149.77;39.33
60055;BME280;45930;53.514;55.904;2023-05-31T02:46:54;49328.06;;;-149.77;39.35
60055;BME280;45930;53.514;55.904;2023-05-31T02:47:55;49337.97;;;-149.77;39.54
60055;BME280;45930;53.514;55.904;2023-05-31T02:48:56;49310.25;;;-149.77;39.43
60055;BME280;45930;53.514;55.904;2023-05-31T02:49:57;49318.16;;;-149.77;39.28
60055;BME280;45930;53.514;55.904;2023-05-31T02:50:58;49326.09;;;-149.77;39.32
60055;BME280;45930;53.514;55.904;2023-05-31T02:51:58;49343.91;;;-149.77;39.64
60055;BME280;45930;53.514;55.904;2023-05-31T02:52:59;49318.16;;;-149.77;39.59
60055;BME280;45930;53.514;55.904;2023-05-31T02:54:06;49304.28;;;-149.77;39.79
60055;BME280;45930;53.514;55.904;2023-05-31T02:55:07;49337.97;;;-149.77;39.86
60055;BME280;45930;53.514;55.904;2023-05-31T02:56:08;49330.03;;;-149.77;39.66
60055;BME280;45930;53.514;55.904;2023-05-31T02:57:09;49322.13;;;-149.77;41.30
60055;BME280;45930;53.514;55.904;2023-05-31T02:58:09;49353.81;;;-149.77;41.51
60055;BME280;45930;53.514;55.904;2023-05-31T02:59:11;49298.34;;;-149.77;41.14
60055;BME280;45930;53.514;55.904;2023-05-31T03:00:12;49322.13;;;-149.77;41.14
60055;BME280;45930;53.514;55.904;2023-05-31T03:01:13;49318.16;;;-149.77;41.14
60055;BME280;45930;53.514;55.904;2023-05-31T03:02:14;49324.09;;;-149.77;40.99
60055;BME280;45930;53.514;55.904;2023-05-31T03:03:15;49332.03;;;-149.77;41.45
60055;BME280;45930;53.514;55.904;2023-05-31T03:04:19;49306.28;;;-149.77;41.43
60055;BME280;45930;53.514;55.904;2023-05-31T03:05:20;49324.09;;;-149.77;41.73
60055;BME280;45930;53.514;55.904;2023-05-31T03:06:21;49322.13;;;-149.77;40.78
60055;BME280;45930;53.514;55.904;2023-05-31T03:07:22;49365.69;;;-149.77;38.96
60055;BME280;45930;53.514;55.904;2023-05-31T03:08:23;49357.78;;;-149.77;38.08
60055;BME280;45930;53.514;55.904;2023-05-31T03:09:23;49363.72;;;-149.77;37.95
60055;BME280;45930;53.514;55.904;2023-05-31T03:10:24;49377.59;;;-149.77;37.92
60055;BME280;45930;53.514;55.904;2023-05-31T03:11:25;49330.03;;;-149.77;38.24
60055;BME280;45930;53.514;55.904;2023-05-31T03:12:26;49377.59;;;-149.77;38.62
60055;BME280;45930;53.514;55.904;2023-05-31T03:13:27;49375.59;;;-149.77;38.02
60055;BME280;45930;53.514;55.904;2023-05-31T03:14:28;49389.47;;;-149.77;37.45
60055;BME280;45930;53.514;55.904;2023-05-31T03:15:29;49363.72;;;-149.77;37.46
60055;BME280;45930;53.514;55.904;2023-05-31T03:16:29;49383.53;;;-149.77;37.31
60055;BME280;45930;53.514;55.904;2023-05-31T03:17:31;49377.59;;;-149.77;37.69
60055;BME280;45930;53.514;55.904;2023-05-31T03:18:31;49385.50;;;-149.77;37.74
60055;BME280;45930;53.514;55.904;2023-05-31T03:19:32;49379.56;;;-149.77;37.53
60055;BME280;45930;53.514;55.904;2023-05-31T03:20:33;49361.75;;;-149.77;38.00
60055;BME280;45930;53.514;55.904;2023-05-31T03:21:35;49373.63;;;-149.77;37.75
60055;BME280;45930;53.514;55.904;2023-05-31T03:22:36;49379.56;;;-149.77;37.79
60055;BME280;45930;53.514;55.904;2023-05-31T03:23:37;49397.41;;;-149.77;37.48
60055;BME280;45930;53.514;55.904;2023-05-31T03:24:38;49373.63;;;-149.77;37.46
60055;BME280;45930;53.514;55.904;2023-05-31T03:25:39;49389.47;;;-149.77;37.55
60055;BME280;45930;53.514;55.904;2023-05-31T03:26:40;49395.41;;;-149.77;37.70
60055;BME280;45930;53.514;55.904;2023-05-31T03:27:41;49397.41;;;-149.77;37.49
60055;BME280;45930;53.514;55.904;2023-05-31T03:28:41;49403.34;;;-149.77;37.67
60055;BME280;45930;53.514;55.904;2023-05-31T03:29:42;49379.56;;;-149.77;37.71
60055;BME280;45930;53.514;55.904;2023-05-31T03:30:43;49409.28;;;-149.77;37.71
60055;BME280;45930;53.514;55.904;2023-05-31T03:31:44;49405.31;;;-149.77;37.23
60055;BME280;45930;53.514;55.904;2023-05-31T03:32:45;49389.47;;;-149.77;37.30
60055;BME280;45930;53.514;55.904;2023-05-31T03:33:46;49417.19;;;-149.77;36.70
60055;BME280;45930;53.514;55.904;2023-05-31T03:34:46;49413.25;;;-149.77;36.55
60055;BME280;45930;53.514;55.904;2023-05-31T03:35:47;49393.44;;;-149.77;36.20
60055;BME280;45930;53.514;55.904;2023-05-31T03:36:48;49413.25;;;-149.77;36.21
60055;BME280;45930;53.514;55.904;2023-05-31T03:37:49;49435.03;;;-149.77;36.18
60055;BME280;45930;53.514;55.904;2023-05-31T03:38:49;49389.47;;;-149.77;36.12
60055;BME280;45930;53.514;55.904;2023-05-31T03:39:50;49425.13;;;-149.77;35.88
60055;BME280;45930;53.514;55.904;2023-05-31T03:40:51;49401.34;;;-149.77;35.94
60055;BME280;45930;53.514;55.904;2023-05-31T03:41:52;49409.28;;;-149.77;35.82
60055;BME280;45930;53.514;55.904;2023-05-31T03:42:53;49407.31;;;-149.77;35.89
60055;BME280;45930;53.514;55.904;2023-05-31T03:43:53;49411.25;;;-149.77;36.04
60055;BME280;45930;53.514;55.904;2023-05-31T03:44:54;49417.19;;;-149.77;36.24
60055;BME280;45930;53.514;55.904;2023-05-31T03:45:56;49433.06;;;-149.77;36.21
60055;BME280;45930;53.514;55.904;2023-05-31T03:47:01;49421.16;;;-149.77;36.50
60055;BME280;45930;53.514;55.904;2023-05-31T03:48:02;49393.44;;;-149.77;36.30
60055;BME280;45930;53.514;55.904;2023-05-31T03:49:02;49439.00;;;-149.77;36.12
60055;BME280;45930;53.514;55.904;2023-05-31T03:50:06;49431.06;;;-149.77;35.92
60055;BME280;45930;53.514;55.904;2023-05-31T03:51:07;49437.00;;;-149.77;35.59
60055;BME280;45930;53.514;55.904;2023-05-31T03:52:08;49429.09;;;-149.77;35.35
60055;BME280;45930;53.514;55.904;2023-05-31T03:53:13;49439.00;;;-149.77;35.54
60055;BME280;45930;53.514;55.904;2023-05-31T03:54:14;49474.66;;;-149.77;36.20
60055;BME280;45930;53.514;55.904;2023-05-31T03:55:14;49446.91;;;-149.77;36.84
60055;BME280;45930;53.514;55.904;2023-05-31T03:56:15;49452.84;;;-149.77;36.45
60055;BME280;45930;53.514;55.904;2023-05-31T03:57:16;49460.78;;;-149.77;35.82
60055;BME280;45930;53.514;55.904;2023-05-31T03:58:18;49458.81;;;-149.77;35.61
60055;BME280;45930;53.514;55.904;2023-05-31T03:59:19;49502.38;;;-149.77;35.11
60055;BME280;45930;53.514;55.904;2023-05-31T04:00:20;49466.72;;;-149.77;34.79
60055;BME280;45930;53.514;55.904;2023-05-31T04:01:21;49470.69;;;-149.77;35.15
60055;BME280;45930;53.514;55.904;2023-05-31T04:02:22;49496.44;;;-149.77;35.83
60055;BME280;45930;53.514;55.904;2023-05-31T04:03:22;49476.63;;;-149.77;34.96
60055;BME280;45930;53.514;55.904;2023-05-31T04:04:23;49500.41;;;-149.77;35.08
60055;BME280;45930;53.514;55.904;2023-05-31T04:05:24;49524.16;;;-149.77;35.43
60055;BME280;45930;53.514;55.904;2023-05-31T04:06:25;49510.31;;;-149.77;35.67
60055;BME280;45930;53.514;55.904;2023-05-31T04:07:27;49492.47;;;-149.77;35.42
60055;BME280;45930;53.514;55.904;2023-05-31T04:08:28;49520.22;;;-149.77;35.09
60055;BME280;45930;53.514;55.904;2023-05-31T04:09:28;49514.28;;;-149.77;35.21
60055;BME280;45930;53.514;55.904;2023-05-31T04:10:30;49512.28;;;-149.77;35.49
60055;BME280;45930;53.514;55.904;2023-05-31T04:11:31;49490.50;;;-149.77;34.98
60055;BME280;45930;53.514;55.904;2023-05-31T04:12:32;49514.28;;;-149.77;34.96
60055;BME280;45930;53.514;55.904;2023-05-31T04:13:33;49528.13;;;-149.77;35.24
60055;BME280;45930;53.514;55.904;2023-05-31T04:14:33;49516.25;;;-149.77;35.13
60055;BME280;45930;53.514;55.904;2023-05-31T04:15:35;49512.28;;;-149.77;35.13
60055;BME280;45930;53.514;55.904;2023-05-31T04:16:36;49536.06;;;-149.77;34.66
60055;BME280;45930;53.514;55.904;2023-05-31T04:17:36;49538.03;;;-149.77;34.75
60055;BME280;45930;53.514;55.904;2023-05-31T04:18:37;49534.06;;;-149.77;35.24
60055;BME280;45930;53.514;55.904;2023-05-31T04:19:38;49547.94;;;-149.77;34.96
60055;BME280;45930;53.514;55.904;2023-05-31T04:20:39;49522.19;;;-149.77;35.12
60055;BME280;45930;53.514;55.904;2023-05-31T04:21:40;49557.84;;;-149.77;34.56
60055;BME280;45930;53.514;55.904;2023-05-31T04:22:41;49547.94;;;-149.77;34.58
60055;BME280;45930;53.514;55.904;2023-05-31T04:23:42;49563.78;;;-149.77;33.94
60055;BME280;45930;53.514;55.904;2023-05-31T04:24:43;49528.13;;;-149.77;34.24
60055;BME280;45930;53.514;55.904;2023-05-31T04:25:44;49573.69;;;-149.77;33.79
60055;BME280;45930;53.514;55.904;2023-05-31T04:26:45;49522.19;;;-149.77;34.24
60055;BME280;45930;53.514;55.904;2023-05-31T04:27:46;49520.22;;;-149.77;33.94
60055;BME280;45930;53.514;55.904;2023-05-31T04:28:48;49561.81;;;-149.77;34.34
60055;BME280;45930;53.514;55.904;2023-05-31T04:29:54;49565.78;;;-149.77;34.34
60055;BME280;45930;53.514;55.904;2023-05-31T04:30:57;49551.91;;;-149.77;33.58
60055;BME280;45930;53.514;55.904;2023-05-31T04:31:59;49555.88;;;-149.77;33.23
60055;BME280;45930;53.514;55.904;2023-05-31T04:33:00;49540.03;;;-149.77;33.56
60055;BME280;45930;53.514;55.904;2023-05-31T04:34:03;49532.09;;;-149.77;33.47
60055;BME280;45930;53.514;55.904;2023-05-31T04:35:05;49571.72;;;-149.77;33.41
60055;BME280;45930;53.514;55.904;2023-05-31T04:36:06;49553.88;;;-149.77;33.05
60055;BME280;45930;53.514;55.904;2023-05-31T04:37:11;49551.91;;;-149.77;33.10
60055;BME280;45930;53.514;55.904;2023-05-31T04:38:13;49565.78;;;-149.77;33.08
60055;BME280;45930;53.514;55.904;2023-05-31T04:39:17;49565.78;;;-149.77;33.16
60055;BME280;45930;53.514;55.904;2023-05-31T04:40:20;49524.16;;;-149.77;33.47
60055;BME280;45930;53.514;55.904;2023-05-31T04:41:22;49557.84;;;-149.77;33.23
60055;BME280;45930;53.514;55.904;2023-05-31T04:42:27;49538.03;;;-149.77;33.16
60055;BME280;45930;53.514;55.904;2023-05-31T04:43:28;49530.13;;;-149.77;33.36
60055;BME280;45930;53.514;55.904;2023-05-31T04:44:28;49536.06;;;-149.77;33.15
60055;BME280;45930;53.514;55.904;2023-05-31T04:45:30;49563.78;;;-149.77;32.98
60055;BME280;45930;53.514;55.904;2023-05-31T04:46:33;49567.75;;;-149.77;33.38
60055;BME280;45930;53.514;55.904;2023-05-31T04:47:34;49595.50;;;-149.77;33.54
60055;BME280;45930;53.514;55.904;2023-05-31T04:48:36;49569.72;;;-149.77;32.85
60055;BME280;45930;53.514;55.904;2023-05-31T04:49:37;49571.72;;;-149.77;32.92
60055;BME280;45930;53.514;55.904;2023-05-31T04:50:38;49607.38;;;-149.77;32.59
60055;BME280;45930;53.514;55.904;2023-05-31T04:51:39;49579.63;;;-149.77;32.62
60055;BME280;45930;53.514;55.904;2023-05-31T04:52:40;49583.59;;;-149.77;32.43
60055;BME280;45930;53.514;55.904;2023-05-31T04:53:42;49611.34;;;-149.77;32.60
60055;BME280;45930;53.514;55.904;2023-05-31T04:54:42;49623.22;;;-149.77;32.34
60055;BME280;45930;53.514;55.904;2023-05-31T04:55:43;49635.09;;;-149.77;32.01
60055;BME280;45930;53.514;55.904;2023-05-31T04:56:44;49648.97;;;-149.77;31.67
60055;BME280;45930;53.514;55.904;2023-05-31T04:57:45;49668.78;;;-149.77;31.45
60055;BME280;45930;53.514;55.904;2023-05-31T04:58:45;49710.38;;;-149.77;31.29
60055;BME280;45930;53.514;55.904;2023-05-31T04:59:47;49639.06;;;-149.77;31.48
60055;BME280;45930;53.514;55.904;2023-05-31T05:00:47;49666.81;;;-149.77;31.47
60055;BME280;45930;53.514;55.904;2023-05-31T05:01:48;49660.84;;;-149.77;31.48
60055;BME280;45930;53.514;55.904;2023-05-31T05:02:49;49708.41;;;-149.77;31.35
60055;BME280;45930;53.514;55.904;2023-05-31T05:03:50;49710.38;;;-149.77;30.92
60055;BME280;45930;53.514;55.904;2023-05-31T05:04:53;49672.75;;;-149.77;30.86
60055;BME280;45930;53.514;55.904;2023-05-31T05:05:56;49696.53;;;-149.77;30.89
60055;BME280;45930;53.514;55.904;2023-05-31T05:06:57;49682.66;;;-149.77;30.66
60055;BME280;45930;53.514;55.904;2023-05-31T05:07:57;49686.63;;;-149.77;30.56
60055;BME280;45930;53.514;55.904;2023-05-31T05:08:58;49688.59;;;-149.77;30.85
60055;BME280;45930;53.514;55.904;2023-05-31T05:10:00;49666.81;;;-149.77;30.61
60055;BME280;45930;53.514;55.904;2023-05-31T05:11:01;49676.72;;;-149.77;30.65
60055;BME280;45930;53.514;55.904;2023-05-31T05:12:03;49682.66;;;-149.77;30.38
60055;BME280;45930;53.514;55.904;2023-05-31T05:13:04;49686.63;;;-149.77;30.72
60055;BME280;45930;53.514;55.904;2023-05-31T05:14:05;49720.28;;;-149.77;30.92
60055;BME280;45930;53.514;55.904;2023-05-31T05:15:06;49670.75;;;-149.77;31.13
60055;BME280;45930;53.514;55.904;2023-05-31T05:16:07;49696.53;;;-149.77;30.82
60055;BME280;45930;53.514;55.904;2023-05-31T05:17:08;49676.72;;;-149.77;30.45
60055;BME280;45930;53.514;55.904;2023-05-31T05:18:09;49654.91;;;-149.77;30.32
60055;BME280;45930;53.514;55.904;2023-05-31T05:19:09;49686.63;;;-149.77;30.78
60055;BME280;45930;53.514;55.904;2023-05-31T05:20:10;49698.50;;;-149.77;30.15
60055;BME280;45930;53.514;55.904;2023-05-31T05:21:11;49702.47;;;-149.77;30.38
60055;BME280;45930;53.514;55.904;2023-05-31T05:22:12;49716.31;;;-149.77;30.04